sensor_id;sensor_type;location;lat;lon;timestamp;P1;durP1;ratioP1;P2;durP2;ratioP2
12838;SDS011;6486;51.034;5.262;2022-12-08T00:01:49;4.87;;;3.00;;
12838;SDS011;6486;51.034;5.262;2022-12-08T00:04:14;4.10;;;2.93;;
12838;SDS011;6486;51.034;5.262;2022-12-08T00:06:41;6.13;;;3.40;;
12838;SDS011;6486;51.034;5.262;2022-12-08T00:12:09;4.33;;;3.13;;
12838;SDS011;6486;51.034;5.262;2022-12-08T00:14:40;6.23;;;2.53;;
12838;SDS011;6486;51.034;5.262;2022-12-08T00:17:08;4.93;;;2.93;;
12838;SDS011;6486;51.034;5.262;2022-12-08T00:19:35;5.77;;;2.40;;
12838;SDS011;6486;51.034;5.262;2022-12-08T00:22:04;4.47;;;2.90;;
12838;SDS011;6486;51.034;5.262;2022-12-08T00:24:31;4.23;;;2.37;;
12838;SDS011;6486;51.034;5.262;2022-12-08T00:27:08;6.57;;;3.00;;
12838;SDS011;6486;51.034;5.262;2022-12-08T00:29:35;4.00;;;1.80;;
12838;SDS011;6486;51.034;5.262;2022-12-08T00:32:01;3.10;;;1.87;;
12838;SDS011;6486;51.034;5.262;2022-12-08T00:34:27;4.93;;;3.07;;
12838;SDS011;6486;51.034;5.262;2022-12-08T00:36:52;3.83;;;1.83;;
12838;SDS011;6486;51.034;5.262;2022-12-08T00:39:18;3.10;;;1.97;;
12838;SDS011;6486;51.034;5.262;2022-12-08T00:41:43;10.73;;;2.43;;
12838;SDS011;6486;51.034;5.262;2022-12-08T00:44:28;2.37;;;1.80;;
12838;SDS011;6486;51.034;5.262;2022-12-08T00:46:53;3.03;;;2.13;;
12838;SDS011;6486;51.034;5.262;2022-12-08T00:49:19;4.80;;;2.23;;
12838;SDS011;6486;51.034;5.262;2022-12-08T00:51:45;3.00;;;2.17;;
12838;SDS011;6486;51.034;5.262;2022-12-08T00:54:11;4.37;;;1.60;;
12838;SDS011;6486;51.034;5.262;2022-12-08T00:56:37;4.70;;;1.60;;
12838;SDS011;6486;51.034;5.262;2022-12-08T00:59:03;5.73;;;2.50;;
12838;SDS011;6486;51.034;5.262;2022-12-08T01:01:30;2.87;;;1.87;;
12838;SDS011;6486;51.034;5.262;2022-12-08T01:03:55;3.43;;;2.47;;
12838;SDS011;6486;51.034;5.262;2022-12-08T01:06:21;5.97;;;2.93;;
12838;SDS011;6486;51.034;5.262;2022-12-08T01:08:46;2.07;;;1.47;;
12838;SDS011;6486;51.034;5.262;2022-12-08T01:11:14;4.20;;;2.53;;
12838;SDS011;6486;51.034;5.262;2022-12-08T01:13:42;4.70;;;2.20;;
12838;SDS011;6486;51.034;5.262;2022-12-08T01:16:08;5.67;;;2.80;;
12838;SDS011;6486;51.034;5.262;2022-12-08T01:18:35;6.57;;;3.43;;
12838;SDS011;6486;51.034;5.262;2022-12-08T01:21:04;3.40;;;2.10;;
12838;SDS011;6486;51.034;5.262;2022-12-08T01:23:32;6.03;;;2.03;;
12838;SDS011;6486;51.034;5.262;2022-12-08T01:26:05;6.07;;;2.60;;
12838;SDS011;6486;51.034;5.262;2022-12-08T01:28:32;3.40;;;2.00;;
12838;SDS011;6486;51.034;5.262;2022-12-08T01:30:58;4.20;;;2.53;;
12838;SDS011;6486;51.034;5.262;2022-12-08T01:33:25;4.80;;;2.40;;
12838;SDS011;6486;51.034;5.262;2022-12-08T01:35:51;4.07;;;2.83;;
12838;SDS011;6486;51.034;5.262;2022-12-08T01:38:17;12.40;;;2.27;;
12838;SDS011;6486;51.034;5.262;2022-12-08T01:40:43;4.97;;;2.47;;
12838;SDS011;6486;51.034;5.262;2022-12-08T01:43:18;3.93;;;2.13;;
12838;SDS011;6486;51.034;5.262;2022-12-08T01:45:45;2.20;;;1.73;;
12838;SDS011;6486;51.034;5.262;2022-12-08T01:48:18;5.40;;;2.23;;
12838;SDS011;6486;51.034;5.262;2022-12-08T01:50:47;5.90;;;2.73;;
12838;SDS011;6486;51.034;5.262;2022-12-08T01:53:22;5.83;;;2.70;;
12838;SDS011;6486;51.034;5.262;2022-12-08T01:55:58;5.03;;;2.90;;
12838;SDS011;6486;51.034;5.262;2022-12-08T01:58:40;5.27;;;2.00;;
12838;SDS011;6486;51.034;5.262;2022-12-08T02:01:09;8.10;;;3.93;;
12838;SDS011;6486;51.034;5.262;2022-12-08T02:03:38;3.70;;;2.90;;
12838;SDS011;6486;51.034;5.262;2022-12-08T02:06:07;8.97;;;2.43;;
12838;SDS011;6486;51.034;5.262;2022-12-08T02:08:33;13.53;;;5.50;;
12838;SDS011;6486;51.034;5.262;2022-12-08T02:11:04;9.07;;;4.03;;
12838;SDS011;6486;51.034;5.262;2022-12-08T02:13:32;6.40;;;3.10;;
12838;SDS011;6486;51.034;5.262;2022-12-08T02:21:32;4.50;;;3.70;;
12838;SDS011;6486;51.034;5.262;2022-12-08T02:35:09;6.73;;;3.50;;
12838;SDS011;6486;51.034;5.262;2022-12-08T02:43:56;9.27;;;4.00;;
12838;SDS011;6486;51.034;5.262;2022-12-08T02:46:13;7.63;;;3.73;;
12838;SDS011;6486;51.034;5.262;2022-12-08T02:48:49;8.03;;;3.43;;
12838;SDS011;6486;51.034;5.262;2022-12-08T02:51:16;8.07;;;4.10;;
12838;SDS011;6486;51.034;5.262;2022-12-08T02:53:42;7.47;;;4.70;;
12838;SDS011;6486;51.034;5.262;2022-12-08T03:06:51;7.50;;;3.30;;
12838;SDS011;6486;51.034;5.262;2022-12-08T03:09:37;5.73;;;3.73;;
12838;SDS011;6486;51.034;5.262;2022-12-08T03:12:24;12.53;;;5.53;;
12838;SDS011;6486;51.034;5.262;2022-12-08T03:17:31;15.23;;;4.23;;
12838;SDS011;6486;51.034;5.262;2022-12-08T03:19:57;7.90;;;4.73;;
12838;SDS011;6486;51.034;5.262;2022-12-08T03:22:28;11.67;;;5.27;;
12838;SDS011;6486;51.034;5.262;2022-12-08T03:24:54;11.97;;;5.83;;
12838;SDS011;6486;51.034;5.262;2022-12-08T03:27:21;8.20;;;5.10;;
12838;SDS011;6486;51.034;5.262;2022-12-08T03:29:51;9.00;;;4.30;;
12838;SDS011;6486;51.034;5.262;2022-12-08T03:32:21;8.67;;;3.40;;
12838;SDS011;6486;51.034;5.262;2022-12-08T03:34:53;7.93;;;4.10;;
12838;SDS011;6486;51.034;5.262;2022-12-08T03:37:21;15.37;;;5.30;;
12838;SDS011;6486;51.034;5.262;2022-12-08T03:39:47;8.13;;;3.60;;
12838;SDS011;6486;51.034;5.262;2022-12-08T03:42:13;7.17;;;4.43;;
12838;SDS011;6486;51.034;5.262;2022-12-08T03:44:38;10.93;;;3.00;;
12838;SDS011;6486;51.034;5.262;2022-12-08T03:47:04;6.77;;;3.70;;
12838;SDS011;6486;51.034;5.262;2022-12-08T03:49:29;7.70;;;4.83;;
12838;SDS011;6486;51.034;5.262;2022-12-08T03:51:55;12.43;;;4.83;;
12838;SDS011;6486;51.034;5.262;2022-12-08T03:54:20;5.63;;;3.90;;
12838;SDS011;6486;51.034;5.262;2022-12-08T03:56:46;6.83;;;4.43;;
12838;SDS011;6486;51.034;5.262;2022-12-08T03:59:12;10.97;;;3.80;;
12838;SDS011;6486;51.034;5.262;2022-12-08T04:01:37;8.90;;;4.73;;
12838;SDS011;6486;51.034;5.262;2022-12-08T04:04:03;6.70;;;3.33;;
12838;SDS011;6486;51.034;5.262;2022-12-08T04:06:29;10.00;;;6.60;;
12838;SDS011;6486;51.034;5.262;2022-12-08T04:08:54;8.17;;;4.80;;
12838;SDS011;6486;51.034;5.262;2022-12-08T04:11:20;7.83;;;5.27;;
12838;SDS011;6486;51.034;5.262;2022-12-08T04:13:45;7.20;;;5.53;;
12838;SDS011;6486;51.034;5.262;2022-12-08T04:16:15;6.83;;;4.43;;
12838;SDS011;6486;51.034;5.262;2022-12-08T04:18:43;9.30;;;4.27;;
12838;SDS011;6486;51.034;5.262;2022-12-08T04:21:09;7.13;;;4.77;;
12838;SDS011;6486;51.034;5.262;2022-12-08T04:23:34;7.13;;;4.60;;
12838;SDS011;6486;51.034;5.262;2022-12-08T04:26:00;6.30;;;4.07;;
12838;SDS011;6486;51.034;5.262;2022-12-08T04:28:25;13.10;;;5.50;;
12838;SDS011;6486;51.034;5.262;2022-12-08T04:30:53;12.60;;;5.13;;
12838;SDS011;6486;51.034;5.262;2022-12-08T04:33:19;7.57;;;3.60;;
12838;SDS011;6486;51.034;5.262;2022-12-08T04:35:45;7.27;;;3.87;;
12838;SDS011;6486;51.034;5.262;2022-12-08T04:38:11;12.37;;;4.37;;
12838;SDS011;6486;51.034;5.262;2022-12-08T04:40:37;9.63;;;3.73;;
12838;SDS011;6486;51.034;5.262;2022-12-08T04:43:03;6.97;;;4.63;;
12838;SDS011;6486;51.034;5.262;2022-12-08T04:45:29;4.80;;;3.47;;
12838;SDS011;6486;51.034;5.262;2022-12-08T04:47:55;6.07;;;4.10;;
12838;SDS011;6486;51.034;5.262;2022-12-08T04:50:20;7.50;;;2.97;;
12838;SDS011;6486;51.034;5.262;2022-12-08T04:52:46;8.60;;;3.90;;
12838;SDS011;6486;51.034;5.262;2022-12-08T04:55:11;15.47;;;4.17;;
12838;SDS011;6486;51.034;5.262;2022-12-08T04:57:37;7.53;;;4.33;;
12838;SDS011;6486;51.034;5.262;2022-12-08T05:00:03;5.20;;;3.17;;
12838;SDS011;6486;51.034;5.262;2022-12-08T05:02:30;5.00;;;2.43;;
12838;SDS011;6486;51.034;5.262;2022-12-08T05:04:56;5.20;;;3.20;;
12838;SDS011;6486;51.034;5.262;2022-12-08T05:07:22;6.57;;;3.63;;
12838;SDS011;6486;51.034;5.262;2022-12-08T05:09:47;5.97;;;4.13;;
12838;SDS011;6486;51.034;5.262;2022-12-08T05:12:13;8.93;;;4.50;;
12838;SDS011;6486;51.034;5.262;2022-12-08T05:14:39;9.23;;;4.43;;
12838;SDS011;6486;51.034;5.262;2022-12-08T05:17:04;6.77;;;3.70;;
12838;SDS011;6486;51.034;5.262;2022-12-08T05:19:30;6.87;;;3.67;;
12838;SDS011;6486;51.034;5.262;2022-12-08T05:21:55;5.97;;;3.90;;
12838;SDS011;6486;51.034;5.262;2022-12-08T05:24:21;19.13;;;5.27;;
12838;SDS011;6486;51.034;5.262;2022-12-08T05:26:46;6.00;;;3.40;;
12838;SDS011;6486;51.034;5.262;2022-12-08T05:29:12;11.43;;;4.40;;
12838;SDS011;6486;51.034;5.262;2022-12-08T05:31:38;5.83;;;3.97;;
12838;SDS011;6486;51.034;5.262;2022-12-08T05:34:03;6.53;;;3.73;;
12838;SDS011;6486;51.034;5.262;2022-12-08T05:36:29;9.57;;;3.97;;
12838;SDS011;6486;51.034;5.262;2022-12-08T05:38:55;7.20;;;3.27;;
12838;SDS011;6486;51.034;5.262;2022-12-08T05:41:22;6.50;;;2.67;;
12838;SDS011;6486;51.034;5.262;2022-12-08T05:43:47;12.07;;;5.03;;
12838;SDS011;6486;51.034;5.262;2022-12-08T05:46:13;9.80;;;4.63;;
12838;SDS011;6486;51.034;5.262;2022-12-08T05:48:39;9.20;;;5.27;;
12838;SDS011;6486;51.034;5.262;2022-12-08T05:51:06;4.03;;;2.87;;
12838;SDS011;6486;51.034;5.262;2022-12-08T05:53:38;6.77;;;4.67;;
12838;SDS011;6486;51.034;5.262;2022-12-08T05:56:03;14.90;;;4.37;;
12838;SDS011;6486;51.034;5.262;2022-12-08T05:58:29;7.93;;;4.50;;
12838;SDS011;6486;51.034;5.262;2022-12-08T06:00:55;8.53;;;5.40;;
12838;SDS011;6486;51.034;5.262;2022-12-08T06:03:20;6.33;;;4.53;;
12838;SDS011;6486;51.034;5.262;2022-12-08T06:05:46;5.50;;;4.47;;
12838;SDS011;6486;51.034;5.262;2022-12-08T06:08:12;6.73;;;3.17;;
12838;SDS011;6486;51.034;5.262;2022-12-08T06:10:39;9.47;;;4.00;;
12838;SDS011;6486;51.034;5.262;2022-12-08T06:13:05;5.80;;;3.70;;
12838;SDS011;6486;51.034;5.262;2022-12-08T06:15:32;7.03;;;3.23;;
12838;SDS011;6486;51.034;5.262;2022-12-08T06:18:02;8.13;;;3.07;;
12838;SDS011;6486;51.034;5.262;2022-12-08T06:20:28;5.67;;;3.93;;
12838;SDS011;6486;51.034;5.262;2022-12-08T06:22:53;4.07;;;2.33;;
12838;SDS011;6486;51.034;5.262;2022-12-08T06:25:19;5.67;;;3.43;;
12838;SDS011;6486;51.034;5.262;2022-12-08T06:27:45;6.73;;;3.27;;
12838;SDS011;6486;51.034;5.262;2022-12-08T06:30:11;6.93;;;4.00;;
12838;SDS011;6486;51.034;5.262;2022-12-08T06:32:37;6.23;;;3.67;;
12838;SDS011;6486;51.034;5.262;2022-12-08T06:35:03;6.17;;;3.83;;
12838;SDS011;6486;51.034;5.262;2022-12-08T06:37:29;5.57;;;3.87;;
12838;SDS011;6486;51.034;5.262;2022-12-08T06:39:54;8.17;;;3.97;;
12838;SDS011;6486;51.034;5.262;2022-12-08T06:42:20;5.53;;;3.10;;
12838;SDS011;6486;51.034;5.262;2022-12-08T06:45:05;4.13;;;2.73;;
12838;SDS011;6486;51.034;5.262;2022-12-08T06:47:31;10.23;;;3.90;;
12838;SDS011;6486;51.034;5.262;2022-12-08T06:49:56;6.63;;;3.73;;
12838;SDS011;6486;51.034;5.262;2022-12-08T06:52:22;8.93;;;3.73;;
12838;SDS011;6486;51.034;5.262;2022-12-08T06:54:48;5.03;;;3.03;;
12838;SDS011;6486;51.034;5.262;2022-12-08T06:57:13;4.90;;;2.90;;
12838;SDS011;6486;51.034;5.262;2022-12-08T06:59:39;4.33;;;2.80;;
12838;SDS011;6486;51.034;5.262;2022-12-08T07:02:05;6.90;;;3.67;;
12838;SDS011;6486;51.034;5.262;2022-12-08T07:04:31;6.53;;;4.13;;
12838;SDS011;6486;51.034;5.262;2022-12-08T07:06:56;4.97;;;2.53;;
12838;SDS011;6486;51.034;5.262;2022-12-08T07:09:22;5.43;;;2.60;;
12838;SDS011;6486;51.034;5.262;2022-12-08T07:11:47;4.87;;;2.77;;
12838;SDS011;6486;51.034;5.262;2022-12-08T07:14:13;5.20;;;2.60;;
12838;SDS011;6486;51.034;5.262;2022-12-08T07:16:39;4.27;;;2.60;;
12838;SDS011;6486;51.034;5.262;2022-12-08T07:19:04;4.73;;;3.20;;
12838;SDS011;6486;51.034;5.262;2022-12-08T07:21:30;4.20;;;2.33;;
12838;SDS011;6486;51.034;5.262;2022-12-08T07:23:56;6.07;;;3.47;;
12838;SDS011;6486;51.034;5.262;2022-12-08T07:26:21;7.53;;;3.63;;
12838;SDS011;6486;51.034;5.262;2022-12-08T07:28:47;5.90;;;3.83;;
12838;SDS011;6486;51.034;5.262;2022-12-08T07:31:19;7.80;;;3.97;;
12838;SDS011;6486;51.034;5.262;2022-12-08T07:33:47;7.87;;;4.20;;
12838;SDS011;6486;51.034;5.262;2022-12-08T07:36:14;6.13;;;3.10;;
12838;SDS011;6486;51.034;5.262;2022-12-08T07:38:40;6.90;;;3.70;;
12838;SDS011;6486;51.034;5.262;2022-12-08T07:41:10;9.67;;;4.17;;
12838;SDS011;6486;51.034;5.262;2022-12-08T07:43:39;11.43;;;3.43;;
12838;SDS011;6486;51.034;5.262;2022-12-08T07:46:05;5.97;;;3.70;;
12838;SDS011;6486;51.034;5.262;2022-12-08T07:48:31;7.47;;;4.03;;
12838;SDS011;6486;51.034;5.262;2022-12-08T07:51:00;8.43;;;4.53;;
12838;SDS011;6486;51.034;5.262;2022-12-08T07:53:26;5.47;;;3.33;;
12838;SDS011;6486;51.034;5.262;2022-12-08T07:55:53;5.90;;;3.57;;
12838;SDS011;6486;51.034;5.262;2022-12-08T07:58:18;9.00;;;4.30;;
12838;SDS011;6486;51.034;5.262;2022-12-08T08:00:44;10.50;;;3.70;;
12838;SDS011;6486;51.034;5.262;2022-12-08T08:03:10;8.30;;;4.30;;
12838;SDS011;6486;51.034;5.262;2022-12-08T08:05:36;12.43;;;3.90;;
12838;SDS011;6486;51.034;5.262;2022-12-08T08:08:01;7.60;;;4.67;;
12838;SDS011;6486;51.034;5.262;2022-12-08T08:10:27;10.87;;;4.53;;
12838;SDS011;6486;51.034;5.262;2022-12-08T08:12:53;8.53;;;4.63;;
12838;SDS011;6486;51.034;5.262;2022-12-08T08:15:22;4.30;;;3.10;;
12838;SDS011;6486;51.034;5.262;2022-12-08T08:17:48;9.43;;;3.83;;
12838;SDS011;6486;51.034;5.262;2022-12-08T08:20:15;6.70;;;3.00;;
12838;SDS011;6486;51.034;5.262;2022-12-08T08:22:41;9.83;;;4.70;;
12838;SDS011;6486;51.034;5.262;2022-12-08T08:25:09;8.03;;;4.87;;
12838;SDS011;6486;51.034;5.262;2022-12-08T08:27:34;10.03;;;4.00;;
12838;SDS011;6486;51.034;5.262;2022-12-08T08:30:00;7.67;;;4.20;;
12838;SDS011;6486;51.034;5.262;2022-12-08T08:32:25;5.10;;;3.40;;
12838;SDS011;6486;51.034;5.262;2022-12-08T08:34:51;8.77;;;3.90;;
12838;SDS011;6486;51.034;5.262;2022-12-08T08:37:16;5.03;;;3.47;;
12838;SDS011;6486;51.034;5.262;2022-12-08T08:39:42;8.33;;;3.50;;
12838;SDS011;6486;51.034;5.262;2022-12-08T08:42:08;16.43;;;2.63;;
12838;SDS011;6486;51.034;5.262;2022-12-08T08:44:33;7.37;;;3.60;;
12838;SDS011;6486;51.034;5.262;2022-12-08T08:46:59;8.10;;;4.20;;
12838;SDS011;6486;51.034;5.262;2022-12-08T08:49:24;6.33;;;3.27;;
12838;SDS011;6486;51.034;5.262;2022-12-08T08:51:50;9.50;;;4.90;;
12838;SDS011;6486;51.034;5.262;2022-12-08T08:54:16;8.20;;;3.60;;
12838;SDS011;6486;51.034;5.262;2022-12-08T08:56:41;16.83;;;3.70;;
12838;SDS011;6486;51.034;5.262;2022-12-08T08:59:08;2.67;;;2.43;;
12838;SDS011;6486;51.034;5.262;2022-12-08T09:01:34;9.77;;;3.47;;
12838;SDS011;6486;51.034;5.262;2022-12-08T09:03:59;7.97;;;3.67;;
12838;SDS011;6486;51.034;5.262;2022-12-08T09:06:25;7.13;;;3.40;;
12838;SDS011;6486;51.034;5.262;2022-12-08T09:08:54;5.10;;;3.10;;
12838;SDS011;6486;51.034;5.262;2022-12-08T09:11:19;4.83;;;3.10;;
12838;SDS011;6486;51.034;5.262;2022-12-08T09:13:47;3.50;;;2.10;;
12838;SDS011;6486;51.034;5.262;2022-12-08T09:16:14;4.80;;;2.83;;
12838;SDS011;6486;51.034;5.262;2022-12-08T09:18:40;11.87;;;2.90;;
12838;SDS011;6486;51.034;5.262;2022-12-08T09:21:06;5.50;;;2.47;;
12838;SDS011;6486;51.034;5.262;2022-12-08T09:23:34;7.97;;;2.70;;
12838;SDS011;6486;51.034;5.262;2022-12-08T09:26:01;3.83;;;2.03;;
12838;SDS011;6486;51.034;5.262;2022-12-08T09:28:28;7.13;;;3.97;;
12838;SDS011;6486;51.034;5.262;2022-12-08T09:30:54;3.80;;;3.00;;
12838;SDS011;6486;51.034;5.262;2022-12-08T09:33:20;5.97;;;3.67;;
12838;SDS011;6486;51.034;5.262;2022-12-08T09:35:45;6.10;;;3.30;;
12838;SDS011;6486;51.034;5.262;2022-12-08T09:38:12;6.37;;;3.87;;
12838;SDS011;6486;51.034;5.262;2022-12-08T09:40:44;6.13;;;2.90;;
12838;SDS011;6486;51.034;5.262;2022-12-08T09:46:02;8.43;;;3.20;;
12838;SDS011;6486;51.034;5.262;2022-12-08T09:48:32;6.73;;;3.03;;
12838;SDS011;6486;51.034;5.262;2022-12-08T09:51:01;6.40;;;2.33;;
12838;SDS011;6486;51.034;5.262;2022-12-08T09:54:02;2.47;;;2.23;;
12838;SDS011;6486;51.034;5.262;2022-12-08T09:56:25;10.17;;;3.23;;
12838;SDS011;6486;51.034;5.262;2022-12-08T10:02:21;7.10;;;2.03;;
12838;SDS011;6486;51.034;5.262;2022-12-08T10:04:49;7.07;;;2.97;;
12838;SDS011;6486;51.034;5.262;2022-12-08T10:07:37;6.90;;;3.37;;
12838;SDS011;6486;51.034;5.262;2022-12-08T10:10:28;8.13;;;3.17;;
12838;SDS011;6486;51.034;5.262;2022-12-08T10:18:43;4.17;;;2.73;;
12838;SDS011;6486;51.034;5.262;2022-12-08T10:23:47;4.87;;;2.70;;
12838;SDS011;6486;51.034;5.262;2022-12-08T10:26:17;4.87;;;3.00;;
12838;SDS011;6486;51.034;5.262;2022-12-08T10:28:44;4.93;;;1.93;;
12838;SDS011;6486;51.034;5.262;2022-12-08T10:31:20;8.17;;;3.30;;
12838;SDS011;6486;51.034;5.262;2022-12-08T10:33:51;6.10;;;2.67;;
12838;SDS011;6486;51.034;5.262;2022-12-08T10:42:08;5.67;;;2.53;;
12838;SDS011;6486;51.034;5.262;2022-12-08T10:44:52;6.90;;;2.73;;
12838;SDS011;6486;51.034;5.262;2022-12-08T10:47:20;5.73;;;3.20;;
12838;SDS011;6486;51.034;5.262;2022-12-08T10:49:47;7.27;;;3.50;;
12838;SDS011;6486;51.034;5.262;2022-12-08T10:52:42;7.07;;;2.53;;
12838;SDS011;6486;51.034;5.262;2022-12-08T10:55:18;4.50;;;2.40;;
12838;SDS011;6486;51.034;5.262;2022-12-08T10:57:45;8.37;;;3.17;;
12838;SDS011;6486;51.034;5.262;2022-12-08T11:00:17;11.30;;;3.23;;
12838;SDS011;6486;51.034;5.262;2022-12-08T11:02:49;6.13;;;3.57;;
12838;SDS011;6486;51.034;5.262;2022-12-08T11:05:20;9.30;;;3.47;;
12838;SDS011;6486;51.034;5.262;2022-12-08T11:07:51;4.50;;;2.07;;
12838;SDS011;6486;51.034;5.262;2022-12-08T11:10:19;6.97;;;3.23;;
12838;SDS011;6486;51.034;5.262;2022-12-08T11:12:59;4.77;;;3.27;;
12838;SDS011;6486;51.034;5.262;2022-12-08T11:15:26;7.80;;;3.13;;
12838;SDS011;6486;51.034;5.262;2022-12-08T11:17:59;4.97;;;2.73;;
12838;SDS011;6486;51.034;5.262;2022-12-08T11:20:36;4.43;;;2.93;;
12838;SDS011;6486;51.034;5.262;2022-12-08T11:23:15;10.20;;;3.63;;
12838;SDS011;6486;51.034;5.262;2022-12-08T11:25:43;13.70;;;2.37;;
12838;SDS011;6486;51.034;5.262;2022-12-08T11:28:09;7.40;;;2.27;;
12838;SDS011;6486;51.034;5.262;2022-12-08T11:30:35;3.40;;;2.80;;
12838;SDS011;6486;51.034;5.262;2022-12-08T11:33:09;6.00;;;2.77;;
12838;SDS011;6486;51.034;5.262;2022-12-08T11:35:41;11.93;;;2.93;;
12838;SDS011;6486;51.034;5.262;2022-12-08T11:38:13;13.13;;;3.30;;
12838;SDS011;6486;51.034;5.262;2022-12-08T11:40:42;6.83;;;3.67;;
12838;SDS011;6486;51.034;5.262;2022-12-08T11:43:20;7.17;;;3.53;;
12838;SDS011;6486;51.034;5.262;2022-12-08T11:45:48;3.90;;;2.10;;
12838;SDS011;6486;51.034;5.262;2022-12-08T11:51:33;7.37;;;3.83;;
12838;SDS011;6486;51.034;5.262;2022-12-08T11:56:33;4.27;;;2.87;;
12838;SDS011;6486;51.034;5.262;2022-12-08T11:59:23;6.07;;;3.60;;
12838;SDS011;6486;51.034;5.262;2022-12-08T12:01:52;6.97;;;4.17;;
12838;SDS011;6486;51.034;5.262;2022-12-08T12:23:38;4.77;;;2.87;;
12838;SDS011;6486;51.034;5.262;2022-12-08T12:26:29;4.77;;;3.13;;
12838;SDS011;6486;51.034;5.262;2022-12-08T12:31:39;9.77;;;4.73;;
12838;SDS011;6486;51.034;5.262;2022-12-08T12:34:09;6.00;;;3.30;;
12838;SDS011;6486;51.034;5.262;2022-12-08T12:36:52;4.53;;;3.00;;
12838;SDS011;6486;51.034;5.262;2022-12-08T12:39:20;4.23;;;2.70;;
12838;SDS011;6486;51.034;5.262;2022-12-08T12:41:51;6.50;;;3.33;;
12838;SDS011;6486;51.034;5.262;2022-12-08T12:47:12;11.70;;;3.80;;
12838;SDS011;6486;51.034;5.262;2022-12-08T12:57:14;10.77;;;3.23;;
12838;SDS011;6486;51.034;5.262;2022-12-08T13:02:31;10.97;;;2.97;;
12838;SDS011;6486;51.034;5.262;2022-12-08T13:07:53;5.27;;;2.67;;
12838;SDS011;6486;51.034;5.262;2022-12-08T13:10:57;4.73;;;2.50;;
12838;SDS011;6486;51.034;5.262;2022-12-08T13:13:30;3.60;;;1.80;;
12838;SDS011;6486;51.034;5.262;2022-12-08T13:18:40;8.03;;;3.47;;
12838;SDS011;6486;51.034;5.262;2022-12-08T13:21:11;5.90;;;3.37;;
12838;SDS011;6486;51.034;5.262;2022-12-08T13:23:41;19.53;;;2.83;;
12838;SDS011;6486;51.034;5.262;2022-12-08T13:26:26;5.40;;;2.97;;
12838;SDS011;6486;51.034;5.262;2022-12-08T13:34:05;9.03;;;3.37;;
12838;SDS011;6486;51.034;5.262;2022-12-08T13:36:36;9.17;;;4.13;;
12838;SDS011;6486;51.034;5.262;2022-12-08T13:39:10;5.53;;;2.57;;
12838;SDS011;6486;51.034;5.262;2022-12-08T13:41:52;3.60;;;2.07;;
12838;SDS011;6486;51.034;5.262;2022-12-08T13:44:34;6.80;;;3.00;;
12838;SDS011;6486;51.034;5.262;2022-12-08T13:47:11;3.27;;;2.23;;
12838;SDS011;6486;51.034;5.262;2022-12-08T13:49:42;1.87;;;1.73;;
12838;SDS011;6486;51.034;5.262;2022-12-08T13:52:19;5.77;;;2.00;;
12838;SDS011;6486;51.034;5.262;2022-12-08T13:54:56;5.97;;;2.50;;
12838;SDS011;6486;51.034;5.262;2022-12-08T13:57:28;5.43;;;2.60;;
12838;SDS011;6486;51.034;5.262;2022-12-08T14:00:04;12.60;;;2.03;;
12838;SDS011;6486;51.034;5.262;2022-12-08T14:02:40;7.77;;;3.33;;
12838;SDS011;6486;51.034;5.262;2022-12-08T14:05:09;6.30;;;2.83;;
12838;SDS011;6486;51.034;5.262;2022-12-08T14:07:34;10.37;;;2.30;;
12838;SDS011;6486;51.034;5.262;2022-12-08T14:10:02;4.77;;;1.87;;
12838;SDS011;6486;51.034;5.262;2022-12-08T14:12:40;4.00;;;1.40;;
12838;SDS011;6486;51.034;5.262;2022-12-08T14:15:10;4.77;;;2.70;;
12838;SDS011;6486;51.034;5.262;2022-12-08T14:17:39;7.07;;;2.37;;
12838;SDS011;6486;51.034;5.262;2022-12-08T14:22:37;4.13;;;2.00;;
12838;SDS011;6486;51.034;5.262;2022-12-08T14:25:04;3.40;;;1.97;;
12838;SDS011;6486;51.034;5.262;2022-12-08T14:27:33;7.23;;;2.80;;
12838;SDS011;6486;51.034;5.262;2022-12-08T14:37:49;5.50;;;2.70;;
12838;SDS011;6486;51.034;5.262;2022-12-08T14:40:32;3.37;;;2.00;;
12838;SDS011;6486;51.034;5.262;2022-12-08T14:45:44;3.87;;;1.97;;
12838;SDS011;6486;51.034;5.262;2022-12-08T14:53:42;4.97;;;1.93;;
12838;SDS011;6486;51.034;5.262;2022-12-08T15:01:32;2.50;;;1.63;;
12838;SDS011;6486;51.034;5.262;2022-12-08T15:03:59;4.63;;;1.80;;
12838;SDS011;6486;51.034;5.262;2022-12-08T15:06:31;3.77;;;2.63;;
12838;SDS011;6486;51.034;5.262;2022-12-08T15:08:57;6.47;;;3.27;;
12838;SDS011;6486;51.034;5.262;2022-12-08T15:11:26;2.43;;;1.60;;
12838;SDS011;6486;51.034;5.262;2022-12-08T15:13:56;4.17;;;2.00;;
12838;SDS011;6486;51.034;5.262;2022-12-08T15:16:30;3.60;;;2.23;;
12838;SDS011;6486;51.034;5.262;2022-12-08T15:19:03;3.83;;;2.20;;
12838;SDS011;6486;51.034;5.262;2022-12-08T15:21:52;5.67;;;2.83;;
12838;SDS011;6486;51.034;5.262;2022-12-08T15:24:21;5.70;;;2.77;;
12838;SDS011;6486;51.034;5.262;2022-12-08T15:26:49;12.17;;;2.17;;
12838;SDS011;6486;51.034;5.262;2022-12-08T15:29:18;3.67;;;2.60;;
12838;SDS011;6486;51.034;5.262;2022-12-08T15:31:45;7.80;;;4.17;;
12838;SDS011;6486;51.034;5.262;2022-12-08T15:34:11;2.60;;;1.97;;
12838;SDS011;6486;51.034;5.262;2022-12-08T15:36:37;3.87;;;3.00;;
12838;SDS011;6486;51.034;5.262;2022-12-08T15:39:12;3.97;;;2.50;;
12838;SDS011;6486;51.034;5.262;2022-12-08T15:41:44;14.50;;;3.17;;
12838;SDS011;6486;51.034;5.262;2022-12-08T15:44:09;3.77;;;2.47;;
12838;SDS011;6486;51.034;5.262;2022-12-08T15:46:35;11.13;;;2.43;;
12838;SDS011;6486;51.034;5.262;2022-12-08T15:49:00;2.40;;;2.17;;
12838;SDS011;6486;51.034;5.262;2022-12-08T15:51:26;3.07;;;2.73;;
12838;SDS011;6486;51.034;5.262;2022-12-08T15:53:52;5.20;;;2.50;;
12838;SDS011;6486;51.034;5.262;2022-12-08T15:56:17;4.20;;;3.60;;
12838;SDS011;6486;51.034;5.262;2022-12-08T15:58:43;2.83;;;2.30;;
12838;SDS011;6486;51.034;5.262;2022-12-08T16:01:09;2.67;;;2.13;;
12838;SDS011;6486;51.034;5.262;2022-12-08T16:03:34;9.53;;;2.17;;
12838;SDS011;6486;51.034;5.262;2022-12-08T16:06:00;6.20;;;2.10;;
12838;SDS011;6486;51.034;5.262;2022-12-08T16:08:27;5.20;;;2.10;;
12838;SDS011;6486;51.034;5.262;2022-12-08T16:10:54;4.37;;;1.93;;
12838;SDS011;6486;51.034;5.262;2022-12-08T16:13:40;2.87;;;2.10;;
12838;SDS011;6486;51.034;5.262;2022-12-08T16:16:18;9.17;;;2.93;;
12838;SDS011;6486;51.034;5.262;2022-12-08T16:18:47;2.90;;;2.10;;
12838;SDS011;6486;51.034;5.262;2022-12-08T16:21:14;3.43;;;2.13;;
12838;SDS011;6486;51.034;5.262;2022-12-08T16:23:40;1.63;;;1.53;;
12838;SDS011;6486;51.034;5.262;2022-12-08T16:26:10;2.07;;;1.67;;
12838;SDS011;6486;51.034;5.262;2022-12-08T16:28:44;3.07;;;2.03;;
12838;SDS011;6486;51.034;5.262;2022-12-08T16:31:13;2.63;;;1.63;;
12838;SDS011;6486;51.034;5.262;2022-12-08T16:33:39;2.40;;;1.83;;
12838;SDS011;6486;51.034;5.262;2022-12-08T16:36:05;6.37;;;2.30;;
12838;SDS011;6486;51.034;5.262;2022-12-08T16:38:31;5.67;;;1.83;;
12838;SDS011;6486;51.034;5.262;2022-12-08T16:40:56;4.17;;;2.47;;
12838;SDS011;6486;51.034;5.262;2022-12-08T16:43:40;4.07;;;2.63;;
12838;SDS011;6486;51.034;5.262;2022-12-08T16:46:06;6.90;;;3.10;;
12838;SDS011;6486;51.034;5.262;2022-12-08T16:48:42;4.83;;;2.63;;
12838;SDS011;6486;51.034;5.262;2022-12-08T16:51:13;6.40;;;2.37;;
12838;SDS011;6486;51.034;5.262;2022-12-08T16:53:42;6.10;;;2.97;;
12838;SDS011;6486;51.034;5.262;2022-12-08T16:56:13;2.80;;;2.10;;
12838;SDS011;6486;51.034;5.262;2022-12-08T16:58:43;4.67;;;1.20;;
12838;SDS011;6486;51.034;5.262;2022-12-08T17:01:12;4.43;;;1.50;;
12838;SDS011;6486;51.034;5.262;2022-12-08T17:03:40;2.33;;;1.77;;
12838;SDS011;6486;51.034;5.262;2022-12-08T17:06:10;1.60;;;1.47;;
12838;SDS011;6486;51.034;5.262;2022-12-08T17:08:38;1.43;;;1.30;;
12838;SDS011;6486;51.034;5.262;2022-12-08T17:11:04;1.40;;;1.30;;
12838;SDS011;6486;51.034;5.262;2022-12-08T17:13:36;1.77;;;1.47;;
12838;SDS011;6486;51.034;5.262;2022-12-08T17:16:13;1.83;;;1.47;;
12838;SDS011;6486;51.034;5.262;2022-12-08T17:18:41;2.83;;;0.83;;
12838;SDS011;6486;51.034;5.262;2022-12-08T17:21:08;1.30;;;1.03;;
12838;SDS011;6486;51.034;5.262;2022-12-08T17:23:38;2.47;;;1.47;;
12838;SDS011;6486;51.034;5.262;2022-12-08T17:26:05;2.33;;;1.67;;